Basse-Terre, Guadeloupe
Current Conditions -  °F | °C
As of 11:30 PM on Friday 19 Dec 2014 (Local Time) from TFFR Reporting Station
Few Clouds Few Clouds  
Wind Chill: 72°   Ceiling: Unl
Heat Index: 72°   Visibility: 6mi
Dew Point: 70°   Wind: 2mph
Humidity: 94%   Direction: 270°W
Pressure: 29.97"   Gusts: NA
Location:  16°N, 61.72°W
Report Text: TFFR 200330Z AUTO 27002KT 9999 FEW025/// ///CB 22/21 Q1015
Loading
Personal Weather Stations






























Interactive Weather Map New forecast layout! Learn more

10-Day Weather Forecast

Advertisements
Track Severe Weather on mobile